createdAt,value
2023-04-08T00:01:12.230Z,10.52
2023-04-08T00:03:41.960Z,12.80
2023-04-08T00:06:11.518Z,9.45
2023-04-08T00:08:41.148Z,11.65
2023-04-08T00:11:10.582Z,9.38
2023-04-08T00:13:41.357Z,10.55
2023-04-08T00:16:10.766Z,13.88
2023-04-08T00:18:41.292Z,9.00
2023-04-08T00:21:10.812Z,8.30
2023-04-08T00:23:40.229Z,9.07
2023-04-08T00:26:09.589Z,8.77
2023-04-08T00:28:41.148Z,11.65
2023-04-08T00:31:10.929Z,10.18
2023-04-08T00:33:40.489Z,13.63
2023-04-08T00:36:09.901Z,11.85
2023-04-08T00:38:39.344Z,8.98
2023-04-08T00:41:08.801Z,9.35
2023-04-08T00:43:38.179Z,8.05
2023-04-08T00:46:10.078Z,10.20
2023-04-08T00:48:39.527Z,8.93
2023-04-08T00:51:09.932Z,12.93
2023-04-08T00:53:39.583Z,10.52
2023-04-08T00:56:09.071Z,7.10
2023-04-08T00:58:39.006Z,10.85
2023-04-08T01:01:20.254Z,10.48
2023-04-08T01:03:59.432Z,11.32
2023-04-08T01:06:42.406Z,10.88
2023-04-08T01:09:13.474Z,11.67
2023-04-08T01:11:45.955Z,9.27
2023-04-08T01:14:23.029Z,11.53
2023-04-08T01:16:58.448Z,12.63
2023-04-08T01:19:34.494Z,12.55
2023-04-08T01:22:14.323Z,14.90
2023-04-08T01:24:46.842Z,12.88
2023-04-08T01:27:19.193Z,16.27
2023-04-08T01:29:50.602Z,16.42
2023-04-08T01:32:20.996Z,12.90
2023-04-08T01:34:51.164Z,12.80
2023-04-08T01:37:22.115Z,10.68
2023-04-08T01:39:53.827Z,13.65
2023-04-08T01:42:26.929Z,12.38
2023-04-08T01:45:00.581Z,9.73
2023-04-08T01:47:31.188Z,10.48
2023-04-08T01:50:02.507Z,13.05
2023-04-08T01:52:34.128Z,10.60
2023-04-08T01:55:03.715Z,10.80
2023-04-08T01:57:39.605Z,10.45
2023-04-08T02:00:13.992Z,9.98
2023-04-08T02:02:50.765Z,11.02
2023-04-08T02:05:22.011Z,10.38
2023-04-08T02:07:52.057Z,9.75
2023-04-08T02:10:23.160Z,11.10
2023-04-08T02:12:54.034Z,9.73
2023-04-08T02:15:23.732Z,11.27
2023-04-08T02:17:57.634Z,11.10
2023-04-08T02:20:39.888Z,10.75
2023-04-08T02:23:16.492Z,9.50
2023-04-08T02:25:48.348Z,10.80
2023-04-08T02:28:20.964Z,13.68
2023-04-08T02:30:53.754Z,10.93
2023-04-08T02:33:24.783Z,11.10
2023-04-08T02:35:57.764Z,9.63
2023-04-08T02:38:29.818Z,10.25
2023-04-08T02:40:59.719Z,11.20
2023-04-08T02:43:32.280Z,11.48
2023-04-08T02:46:03.632Z,13.70
2023-04-08T02:48:33.959Z,14.43
2023-04-08T02:51:03.542Z,12.95
2023-04-08T02:53:33.097Z,12.15
2023-04-08T02:56:02.555Z,18.17
2023-04-08T02:58:33.864Z,12.60
2023-04-08T03:01:03.312Z,11.18
2023-04-08T03:03:32.803Z,11.40
2023-04-08T03:06:02.323Z,14.02
2023-04-08T03:08:32.716Z,16.38
2023-04-08T03:11:02.142Z,16.40
2023-04-08T03:13:33.347Z,16.65
2023-04-08T03:16:02.908Z,15.40
2023-04-08T03:18:32.417Z,17.17
2023-04-08T03:21:03.297Z,13.20
2023-04-08T03:23:32.728Z,16.30
2023-04-08T03:26:02.322Z,13.75
2023-04-08T03:28:33.121Z,15.23
2023-04-08T03:31:04.100Z,13.32
2023-04-08T03:33:34.004Z,17.27
2023-04-08T03:36:03.497Z,17.10
2023-04-08T03:38:33.018Z,14.93
2023-04-08T03:41:02.465Z,14.48
2023-04-08T03:43:33.265Z,13.43
2023-04-08T03:46:02.861Z,13.57
2023-04-08T03:48:33.201Z,15.55
2023-04-08T03:51:02.641Z,13.55
2023-04-08T03:53:32.126Z,15.55
2023-04-08T03:56:02.771Z,15.57
2023-04-08T03:58:33.611Z,16.45
2023-04-08T04:01:03.148Z,14.50
2023-04-08T04:03:32.728Z,14.93
2023-04-08T04:06:02.325Z,17.13
2023-04-08T04:08:31.933Z,15.40
2023-04-08T04:11:01.573Z,16.52
2023-04-08T04:13:31.060Z,17.45
2023-04-08T04:16:01.906Z,17.90
2023-04-08T04:18:31.299Z,19.48
2023-04-08T04:21:00.848Z,17.00
2023-04-08T04:23:30.380Z,20.60
2023-04-08T04:25:59.836Z,18.80
2023-04-08T04:28:29.266Z,19.52
2023-04-08T04:30:58.695Z,18.70
2023-04-08T04:33:29.463Z,17.52
2023-04-08T04:35:59.018Z,17.58
2023-04-08T04:38:28.461Z,18.15
2023-04-08T04:40:58.969Z,16.92
2023-04-08T04:43:28.439Z,18.55
2023-04-08T04:45:57.901Z,20.60
2023-04-08T04:48:28.802Z,18.13
2023-04-08T04:50:59.388Z,17.10
2023-04-08T04:53:28.878Z,18.20
2023-04-08T04:55:58.271Z,22.45
2023-04-08T04:58:27.807Z,19.20
2023-04-08T05:00:57.579Z,18.40
2023-04-08T05:03:28.429Z,22.13
2023-04-08T05:05:57.891Z,21.50
2023-04-08T05:08:28.085Z,18.40
2023-04-08T05:10:59.552Z,20.20
2023-04-08T05:13:29.080Z,19.85
2023-04-08T05:15:58.535Z,18.90
2023-04-08T05:18:29.286Z,23.38
2023-04-08T05:20:58.719Z,19.08
2023-04-08T05:23:28.197Z,19.63
2023-04-08T05:25:57.597Z,18.52
2023-04-08T05:28:27.225Z,18.40
2023-04-08T05:30:56.727Z,20.02
2023-04-08T05:33:26.621Z,18.10
2023-04-08T05:35:57.408Z,19.77
2023-04-08T05:38:26.951Z,21.08
2023-04-08T05:40:56.443Z,19.45
2023-04-08T05:43:26.142Z,18.75
2023-04-08T05:45:55.585Z,19.70
2023-04-08T05:48:25.046Z,18.17
2023-04-08T05:50:55.962Z,19.85
2023-04-08T05:53:26.184Z,19.75
2023-04-08T05:55:55.566Z,17.88
2023-04-08T05:58:25.139Z,20.92
2023-04-08T06:00:55.642Z,16.70
2023-04-08T06:03:25.540Z,20.30
2023-04-08T06:05:56.540Z,20.05
2023-04-08T06:08:26.093Z,19.70
2023-04-08T06:10:55.567Z,19.25
2023-04-08T06:13:25.845Z,20.65
2023-04-08T06:15:55.224Z,21.70
2023-04-08T06:18:24.776Z,17.83
2023-04-08T06:20:54.301Z,22.08
2023-04-08T06:23:25.183Z,18.52
2023-04-08T06:25:55.309Z,21.17
2023-04-08T06:28:24.889Z,21.45
2023-04-08T06:30:54.375Z,20.42
2023-04-08T06:33:23.824Z,18.75
2023-04-08T06:35:53.236Z,19.50
2023-04-08T06:38:24.048Z,21.15
2023-04-08T06:40:53.460Z,20.92
2023-04-08T06:43:22.998Z,23.05
2023-04-08T06:45:53.347Z,23.20
2023-04-08T06:48:23.423Z,20.13
2023-04-08T06:50:52.919Z,21.85
2023-04-08T06:53:25.558Z,22.08
2023-04-08T06:55:54.980Z,23.55
2023-04-08T06:58:24.483Z,21.83
2023-04-08T07:00:55.954Z,21.60
2023-04-08T07:03:26.569Z,23.17
2023-04-08T07:05:56.245Z,21.77
2023-04-08T07:08:27.332Z,25.50
2023-04-08T07:10:56.791Z,22.40
2023-04-08T07:13:26.334Z,23.58
2023-04-08T07:15:55.906Z,23.50
2023-04-08T07:18:26.270Z,29.58
2023-04-08T07:20:56.408Z,25.60
2023-04-08T07:23:27.271Z,23.35
2023-04-08T07:25:56.746Z,27.77
2023-04-08T07:28:26.161Z,23.58
2023-04-08T07:30:55.605Z,23.13
2023-04-08T07:33:26.420Z,24.17
2023-04-08T07:35:56.047Z,26.98
2023-04-08T07:38:27.781Z,24.60
2023-04-08T07:40:57.190Z,24.80
2023-04-08T07:43:26.693Z,21.52
2023-04-08T07:46:02.730Z,27.25
2023-04-08T07:48:33.100Z,23.75
2023-04-08T07:51:09.069Z,23.45
2023-04-08T07:53:41.728Z,21.95
2023-04-08T07:56:18.207Z,21.38
2023-04-08T07:58:49.581Z,24.27
2023-04-08T08:01:23.468Z,23.27
2023-04-08T08:03:54.551Z,19.70
2023-04-08T08:06:24.261Z,24.02
2023-04-08T08:08:55.567Z,20.70
2023-04-08T08:11:26.766Z,20.27
2023-04-08T08:13:56.968Z,23.40
2023-04-08T08:16:30.128Z,21.10
2023-04-08T08:18:59.625Z,18.20
2023-04-08T08:21:29.189Z,15.55
2023-04-08T08:24:00.707Z,17.88
2023-04-08T08:26:30.163Z,16.90
2023-04-08T08:28:59.559Z,19.75
2023-04-08T08:31:29.094Z,17.60
2023-04-08T08:33:58.652Z,18.25
2023-04-08T08:36:28.548Z,15.90
2023-04-08T08:38:59.320Z,16.48
2023-04-08T08:41:28.793Z,16.85
2023-04-08T08:44:01.034Z,20.60
2023-04-08T08:46:30.569Z,17.38
2023-04-08T08:49:00.209Z,17.60
2023-04-08T08:51:32.618Z,24.17
2023-04-08T08:54:05.651Z,19.83
2023-04-08T08:56:35.334Z,14.25
2023-04-08T08:59:04.942Z,16.98
2023-04-08T09:01:37.406Z,14.63
2023-04-08T09:04:17.086Z,15.38
2023-04-08T09:06:50.021Z,15.13
2023-04-08T09:09:21.143Z,17.17
2023-04-08T09:11:50.617Z,14.85
2023-04-08T09:14:22.489Z,17.80
2023-04-08T09:16:53.708Z,15.93
2023-04-08T09:19:23.257Z,16.67
2023-04-08T09:22:09.956Z,17.98
2023-04-08T09:24:41.036Z,19.05
2023-04-08T09:27:10.479Z,18.60
2023-04-08T09:29:41.016Z,19.27
2023-04-08T09:32:10.502Z,19.02
2023-04-08T09:34:40.105Z,18.40
2023-04-08T09:37:09.548Z,21.98
2023-04-08T09:39:40.373Z,22.00
2023-04-08T09:42:13.045Z,19.20
2023-04-08T09:44:47.624Z,17.65
2023-04-08T09:47:25.005Z,22.38
2023-04-08T09:50:03.418Z,22.70
2023-04-08T09:52:41.240Z,19.23
2023-04-08T09:55:14.731Z,17.80
2023-04-08T09:57:53.873Z,17.80
2023-04-08T10:00:31.467Z,19.27
2023-04-08T10:03:12.395Z,20.00
2023-04-08T10:05:44.862Z,19.52
2023-04-08T10:08:15.471Z,18.93
2023-04-08T10:10:47.973Z,20.33
2023-04-08T10:13:18.085Z,21.42
2023-04-08T10:15:48.947Z,19.58
2023-04-08T10:18:36.984Z,19.92
2023-04-08T10:21:06.847Z,22.70
2023-04-08T10:24:05.953Z,22.33
2023-04-08T10:26:42.691Z,19.50
2023-04-08T10:29:46.310Z,23.52
2023-04-08T10:32:31.067Z,20.25
2023-04-08T10:35:00.633Z,20.55
2023-04-08T10:37:30.181Z,20.52
2023-04-08T10:39:59.666Z,17.85
2023-04-08T10:42:30.902Z,21.27
2023-04-08T10:45:04.199Z,18.75
2023-04-08T10:50:15.514Z,18.42
2023-04-08T10:52:48.776Z,20.55
2023-04-08T10:57:50.251Z,20.70
2023-04-08T11:00:21.960Z,17.25
2023-04-08T11:02:51.695Z,20.00
2023-04-08T11:05:24.344Z,19.83
2023-04-08T11:07:54.690Z,21.67
2023-04-08T11:10:24.089Z,19.80
2023-04-08T11:12:56.632Z,19.88
2023-04-08T11:15:26.932Z,18.13
2023-04-08T11:17:56.821Z,16.88
2023-04-08T11:20:26.992Z,17.00
2023-04-08T11:22:56.784Z,18.98
2023-04-08T11:25:26.424Z,13.98
2023-04-08T11:27:57.353Z,16.27
2023-04-08T11:30:26.869Z,19.60
2023-04-08T11:32:56.945Z,14.70
2023-04-08T11:35:30.840Z,15.13
2023-04-08T11:38:00.937Z,15.45
2023-04-08T11:40:30.567Z,15.85
2023-04-08T11:43:01.509Z,15.60
2023-04-08T11:45:31.664Z,14.52
2023-04-08T11:48:02.442Z,15.93
2023-04-08T11:50:33.853Z,15.95
2023-04-08T11:53:03.297Z,15.35
2023-04-08T11:55:34.562Z,15.27
2023-04-08T11:58:07.527Z,14.88
2023-04-08T12:00:37.562Z,14.85
2023-04-08T12:03:08.499Z,16.10
2023-04-08T12:05:38.206Z,18.08
2023-04-08T12:08:07.708Z,16.60
2023-04-08T12:10:37.185Z,14.95
2023-04-08T12:13:08.554Z,16.55
2023-04-08T12:15:38.380Z,16.33
2023-04-08T12:18:07.842Z,18.38
2023-04-08T12:20:37.429Z,15.32
2023-04-08T12:23:08.069Z,15.50
2023-04-08T12:25:37.551Z,17.23
2023-04-08T12:28:09.786Z,16.48
2023-04-08T12:30:39.212Z,15.27
2023-04-08T12:33:08.760Z,16.40
2023-04-08T12:35:38.234Z,15.35
2023-04-08T12:38:07.858Z,14.23
2023-04-08T12:40:37.307Z,15.20
